sensor_id;sensor_type;location;lat;lon;timestamp;temperature;humidity
7366;DHT22;3723;52.220;8.792;2023-10-31T00:01:34;11.80;99.90
7366;DHT22;3723;52.220;8.792;2023-10-31T00:04:01;11.90;99.90
7366;DHT22;3723;52.220;8.792;2023-10-31T00:06:29;11.90;99.90
7366;DHT22;3723;52.220;8.792;2023-10-31T00:08:56;11.90;99.90
7366;DHT22;3723;52.220;8.792;2023-10-31T00:11:23;11.90;99.90
7366;DHT22;3723;52.220;8.792;2023-10-31T00:13:50;11.90;99.90
7366;DHT22;3723;52.220;8.792;2023-10-31T00:16:17;12.00;99.90
7366;DHT22;3723;52.220;8.792;2023-10-31T00:18:44;12.00;99.90
7366;DHT22;3723;52.220;8.792;2023-10-31T00:21:10;12.00;99.90
7366;DHT22;3723;52.220;8.792;2023-10-31T00:23:44;12.00;99.90
7366;DHT22;3723;52.220;8.792;2023-10-31T00:26:11;12.00;99.90
7366;DHT22;3723;52.220;8.792;2023-10-31T00:28:37;12.00;99.90
7366;DHT22;3723;52.220;8.792;2023-10-31T00:31:04;12.00;99.90
7366;DHT22;3723;52.220;8.792;2023-10-31T00:33:32;12.00;99.90
7366;DHT22;3723;52.220;8.792;2023-10-31T00:35:59;11.90;99.90
7366;DHT22;3723;52.220;8.792;2023-10-31T00:38:26;12.00;99.90
7366;DHT22;3723;52.220;8.792;2023-10-31T00:40:54;12.00;99.90
7366;DHT22;3723;52.220;8.792;2023-10-31T00:43:21;12.00;99.90
7366;DHT22;3723;52.220;8.792;2023-10-31T00:45:48;12.00;99.90
7366;DHT22;3723;52.220;8.792;2023-10-31T00:48:15;12.00;99.90
7366;DHT22;3723;52.220;8.792;2023-10-31T00:50:42;11.90;99.90
7366;DHT22;3723;52.220;8.792;2023-10-31T00:53:09;11.90;99.90
7366;DHT22;3723;52.220;8.792;2023-10-31T00:55:36;11.90;99.90
7366;DHT22;3723;52.220;8.792;2023-10-31T00:58:04;11.90;99.90
7366;DHT22;3723;52.220;8.792;2023-10-31T01:00:31;11.80;99.90
7366;DHT22;3723;52.220;8.792;2023-10-31T01:03:00;11.90;99.90
7366;DHT22;3723;52.220;8.792;2023-10-31T01:05:26;11.90;99.90
7366;DHT22;3723;52.220;8.792;2023-10-31T01:07:54;11.90;99.90
7366;DHT22;3723;52.220;8.792;2023-10-31T01:10:21;11.90;99.90
7366;DHT22;3723;52.220;8.792;2023-10-31T01:12:48;11.90;99.90
7366;DHT22;3723;52.220;8.792;2023-10-31T01:15:16;11.90;99.90
7366;DHT22;3723;52.220;8.792;2023-10-31T01:17:43;11.90;99.90
7366;DHT22;3723;52.220;8.792;2023-10-31T01:20:10;12.00;99.90
7366;DHT22;3723;52.220;8.792;2023-10-31T01:22:38;12.00;99.90
7366;DHT22;3723;52.220;8.792;2023-10-31T01:25:05;12.00;99.90
7366;DHT22;3723;52.220;8.792;2023-10-31T01:27:32;12.00;99.90
7366;DHT22;3723;52.220;8.792;2023-10-31T01:29:59;12.10;99.90
7366;DHT22;3723;52.220;8.792;2023-10-31T01:32:28;12.10;99.90
7366;DHT22;3723;52.220;8.792;2023-10-31T01:34:54;12.10;99.90
7366;DHT22;3723;52.220;8.792;2023-10-31T01:37:21;12.10;99.90
7366;DHT22;3723;52.220;8.792;2023-10-31T01:39:48;12.10;99.90
7366;DHT22;3723;52.220;8.792;2023-10-31T01:42:16;12.10;99.90
7366;DHT22;3723;52.220;8.792;2023-10-31T01:44:42;12.10;99.90
7366;DHT22;3723;52.220;8.792;2023-10-31T01:47:09;12.10;99.90
7366;DHT22;3723;52.220;8.792;2023-10-31T01:49:38;12.10;99.90
7366;DHT22;3723;52.220;8.792;2023-10-31T01:52:06;12.10;99.90
7366;DHT22;3723;52.220;8.792;2023-10-31T01:54:33;12.10;99.90
7366;DHT22;3723;52.220;8.792;2023-10-31T01:57:00;12.10;99.90
7366;DHT22;3723;52.220;8.792;2023-10-31T01:59:28;12.10;99.90
7366;DHT22;3723;52.220;8.792;2023-10-31T02:01:55;12.10;99.90
7366;DHT22;3723;52.220;8.792;2023-10-31T02:04:22;12.20;99.90
7366;DHT22;3723;52.220;8.792;2023-10-31T02:06:51;12.20;99.90
7366;DHT22;3723;52.220;8.792;2023-10-31T02:09:19;12.10;99.90
7366;DHT22;3723;52.220;8.792;2023-10-31T02:11:49;12.10;99.90
7366;DHT22;3723;52.220;8.792;2023-10-31T02:14:16;12.10;99.90
7366;DHT22;3723;52.220;8.792;2023-10-31T02:16:43;12.10;99.90
7366;DHT22;3723;52.220;8.792;2023-10-31T02:19:10;12.10;99.90
7366;DHT22;3723;52.220;8.792;2023-10-31T02:21:40;12.10;99.90
7366;DHT22;3723;52.220;8.792;2023-10-31T02:24:08;12.10;99.90
7366;DHT22;3723;52.220;8.792;2023-10-31T02:26:35;12.20;99.90
7366;DHT22;3723;52.220;8.792;2023-10-31T02:29:02;12.20;99.90
7366;DHT22;3723;52.220;8.792;2023-10-31T02:31:29;12.20;99.90
7366;DHT22;3723;52.220;8.792;2023-10-31T02:33:56;12.10;99.90
7366;DHT22;3723;52.220;8.792;2023-10-31T02:36:23;12.10;99.90
7366;DHT22;3723;52.220;8.792;2023-10-31T02:38:52;12.20;99.90
7366;DHT22;3723;52.220;8.792;2023-10-31T02:41:18;12.10;99.90
7366;DHT22;3723;52.220;8.792;2023-10-31T02:43:45;12.00;99.90
7366;DHT22;3723;52.220;8.792;2023-10-31T02:46:12;12.00;99.90
7366;DHT22;3723;52.220;8.792;2023-10-31T02:48:41;11.90;75.90
7366;DHT22;3723;52.220;8.792;2023-10-31T02:53:36;11.70;73.40
7366;DHT22;3723;52.220;8.792;2023-10-31T02:56:04;11.60;1.00
7366;DHT22;3723;52.220;8.792;2023-10-31T02:58:31;11.50;1.90
7366;DHT22;3723;52.220;8.792;2023-10-31T03:00:58;11.30;1.00
7366;DHT22;3723;52.220;8.792;2023-10-31T03:03:25;11.20;8.60
7366;DHT22;3723;52.220;8.792;2023-10-31T03:05:52;11.10;23.20
7366;DHT22;3723;52.220;8.792;2023-10-31T03:08:19;11.00;44.70
7366;DHT22;3723;52.220;8.792;2023-10-31T03:10:47;10.90;50.20
7366;DHT22;3723;52.220;8.792;2023-10-31T03:13:18;10.90;99.90
7366;DHT22;3723;52.220;8.792;2023-10-31T03:15:46;10.80;99.90
7366;DHT22;3723;52.220;8.792;2023-10-31T03:18:12;10.70;99.90
7366;DHT22;3723;52.220;8.792;2023-10-31T03:20:40;10.60;99.90
7366;DHT22;3723;52.220;8.792;2023-10-31T03:23:08;10.60;99.90
7366;DHT22;3723;52.220;8.792;2023-10-31T03:25:35;10.60;99.90
7366;DHT22;3723;52.220;8.792;2023-10-31T03:28:02;10.50;99.90
7366;DHT22;3723;52.220;8.792;2023-10-31T03:30:31;10.50;99.90
7366;DHT22;3723;52.220;8.792;2023-10-31T03:32:57;10.40;99.90
7366;DHT22;3723;52.220;8.792;2023-10-31T03:35:25;10.40;99.90
7366;DHT22;3723;52.220;8.792;2023-10-31T03:37:51;10.40;99.90
7366;DHT22;3723;52.220;8.792;2023-10-31T03:40:18;10.40;99.90
7366;DHT22;3723;52.220;8.792;2023-10-31T03:42:45;10.40;99.90
7366;DHT22;3723;52.220;8.792;2023-10-31T03:45:13;10.40;99.90
7366;DHT22;3723;52.220;8.792;2023-10-31T03:47:41;10.40;99.90
7366;DHT22;3723;52.220;8.792;2023-10-31T03:50:09;10.40;99.90
7366;DHT22;3723;52.220;8.792;2023-10-31T03:52:36;10.40;99.90
7366;DHT22;3723;52.220;8.792;2023-10-31T03:55:03;10.30;99.90
7366;DHT22;3723;52.220;8.792;2023-10-31T03:57:30;10.40;99.90
7366;DHT22;3723;52.220;8.792;2023-10-31T03:59:57;10.30;99.90
7366;DHT22;3723;52.220;8.792;2023-10-31T04:02:24;10.30;99.90
7366;DHT22;3723;52.220;8.792;2023-10-31T04:04:52;10.30;99.90
7366;DHT22;3723;52.220;8.792;2023-10-31T04:07:19;10.30;99.90
7366;DHT22;3723;52.220;8.792;2023-10-31T04:09:46;10.30;99.90
7366;DHT22;3723;52.220;8.792;2023-10-31T04:12:13;10.20;99.90
7366;DHT22;3723;52.220;8.792;2023-10-31T04:14:40;10.20;99.90
7366;DHT22;3723;52.220;8.792;2023-10-31T04:17:07;10.20;99.90
7366;DHT22;3723;52.220;8.792;2023-10-31T04:19:36;10.20;87.10
7366;DHT22;3723;52.220;8.792;2023-10-31T04:22:05;10.30;1.00
7366;DHT22;3723;52.220;8.792;2023-10-31T04:24:31;10.30;1.00
7366;DHT22;3723;52.220;8.792;2023-10-31T04:26:58;10.30;1.00
7366;DHT22;3723;52.220;8.792;2023-10-31T04:29:25;10.30;1.00
7366;DHT22;3723;52.220;8.792;2023-10-31T04:31:52;10.30;1.00
7366;DHT22;3723;52.220;8.792;2023-10-31T04:34:19;10.20;1.00
7366;DHT22;3723;52.220;8.792;2023-10-31T04:36:46;10.20;1.00
7366;DHT22;3723;52.220;8.792;2023-10-31T04:39:14;10.20;1.00
7366;DHT22;3723;52.220;8.792;2023-10-31T04:41:41;10.20;1.00
7366;DHT22;3723;52.220;8.792;2023-10-31T04:44:08;10.20;1.00
7366;DHT22;3723;52.220;8.792;2023-10-31T04:46:35;10.20;1.00
7366;DHT22;3723;52.220;8.792;2023-10-31T04:49:02;10.20;1.00
7366;DHT22;3723;52.220;8.792;2023-10-31T04:51:33;10.30;1.00
7366;DHT22;3723;52.220;8.792;2023-10-31T04:54:00;10.30;1.00
7366;DHT22;3723;52.220;8.792;2023-10-31T04:56:28;10.40;1.00
7366;DHT22;3723;52.220;8.792;2023-10-31T04:58:55;10.40;1.00
7366;DHT22;3723;52.220;8.792;2023-10-31T05:01:22;10.50;1.00
7366;DHT22;3723;52.220;8.792;2023-10-31T05:03:50;10.50;1.00
7366;DHT22;3723;52.220;8.792;2023-10-31T05:06:19;10.50;1.00
7366;DHT22;3723;52.220;8.792;2023-10-31T05:08:46;10.50;1.00
7366;DHT22;3723;52.220;8.792;2023-10-31T05:11:13;10.50;1.00
7366;DHT22;3723;52.220;8.792;2023-10-31T05:13:41;10.50;1.00
7366;DHT22;3723;52.220;8.792;2023-10-31T05:16:08;10.40;1.00
7366;DHT22;3723;52.220;8.792;2023-10-31T05:18:36;10.50;1.00
7366;DHT22;3723;52.220;8.792;2023-10-31T05:21:04;10.50;1.00
7366;DHT22;3723;52.220;8.792;2023-10-31T05:23:31;10.40;1.00
7366;DHT22;3723;52.220;8.792;2023-10-31T05:25:59;10.50;1.00
7366;DHT22;3723;52.220;8.792;2023-10-31T05:28:26;10.50;1.00
7366;DHT22;3723;52.220;8.792;2023-10-31T05:30:54;10.50;1.00
7366;DHT22;3723;52.220;8.792;2023-10-31T05:33:21;10.40;1.00
7366;DHT22;3723;52.220;8.792;2023-10-31T05:35:49;10.40;1.00
7366;DHT22;3723;52.220;8.792;2023-10-31T05:38:16;10.40;1.00
7366;DHT22;3723;52.220;8.792;2023-10-31T05:40:43;10.40;1.00
7366;DHT22;3723;52.220;8.792;2023-10-31T05:43:10;10.40;1.00
7366;DHT22;3723;52.220;8.792;2023-10-31T05:45:37;10.40;1.00
7366;DHT22;3723;52.220;8.792;2023-10-31T05:48:05;10.40;1.00
7366;DHT22;3723;52.220;8.792;2023-10-31T05:50:32;10.40;1.00
7366;DHT22;3723;52.220;8.792;2023-10-31T05:52:59;10.40;1.00
7366;DHT22;3723;52.220;8.792;2023-10-31T05:55:26;10.40;1.00
7366;DHT22;3723;52.220;8.792;2023-10-31T05:57:53;10.40;1.00
7366;DHT22;3723;52.220;8.792;2023-10-31T06:00:20;10.40;1.00
7366;DHT22;3723;52.220;8.792;2023-10-31T06:02:46;10.40;1.00
7366;DHT22;3723;52.220;8.792;2023-10-31T06:05:15;10.40;1.00
7366;DHT22;3723;52.220;8.792;2023-10-31T06:07:42;10.30;1.00
7366;DHT22;3723;52.220;8.792;2023-10-31T06:10:09;10.30;1.00
7366;DHT22;3723;52.220;8.792;2023-10-31T06:12:36;10.20;1.00
7366;DHT22;3723;52.220;8.792;2023-10-31T06:15:04;10.20;1.00
7366;DHT22;3723;52.220;8.792;2023-10-31T06:17:30;10.20;1.00
7366;DHT22;3723;52.220;8.792;2023-10-31T06:19:59;10.20;1.00
7366;DHT22;3723;52.220;8.792;2023-10-31T06:22:27;10.20;1.00
7366;DHT22;3723;52.220;8.792;2023-10-31T06:24:54;10.20;1.00
7366;DHT22;3723;52.220;8.792;2023-10-31T06:27:23;10.20;1.00
7366;DHT22;3723;52.220;8.792;2023-10-31T06:29:50;10.20;1.00
7366;DHT22;3723;52.220;8.792;2023-10-31T06:32:17;10.20;1.00
7366;DHT22;3723;52.220;8.792;2023-10-31T06:34:44;10.20;1.00
7366;DHT22;3723;52.220;8.792;2023-10-31T06:37:10;10.10;1.00
7366;DHT22;3723;52.220;8.792;2023-10-31T06:39:39;10.00;1.00
7366;DHT22;3723;52.220;8.792;2023-10-31T06:42:06;9.90;1.00
7366;DHT22;3723;52.220;8.792;2023-10-31T06:44:33;9.80;1.00
7366;DHT22;3723;52.220;8.792;2023-10-31T06:47:00;9.70;1.00
7366;DHT22;3723;52.220;8.792;2023-10-31T06:49:27;9.60;1.00
7366;DHT22;3723;52.220;8.792;2023-10-31T06:51:54;9.60;1.00
7366;DHT22;3723;52.220;8.792;2023-10-31T06:54:21;9.50;1.00
7366;DHT22;3723;52.220;8.792;2023-10-31T06:56:49;9.50;1.00
7366;DHT22;3723;52.220;8.792;2023-10-31T06:59:16;9.50;1.00
7366;DHT22;3723;52.220;8.792;2023-10-31T07:01:43;9.50;7.50
7366;DHT22;3723;52.220;8.792;2023-10-31T07:04:12;9.50;76.90
7366;DHT22;3723;52.220;8.792;2023-10-31T07:06:39;9.50;99.90
7366;DHT22;3723;52.220;8.792;2023-10-31T07:09:06;9.50;99.90
7366;DHT22;3723;52.220;8.792;2023-10-31T07:11:33;9.50;99.90
7366;DHT22;3723;52.220;8.792;2023-10-31T07:14:02;9.50;99.90
7366;DHT22;3723;52.220;8.792;2023-10-31T07:16:29;9.50;99.90
7366;DHT22;3723;52.220;8.792;2023-10-31T07:18:56;9.40;99.90
7366;DHT22;3723;52.220;8.792;2023-10-31T07:21:26;9.50;99.90
7366;DHT22;3723;52.220;8.792;2023-10-31T07:23:55;9.50;1.00
7366;DHT22;3723;52.220;8.792;2023-10-31T07:26:22;9.50;1.00
7366;DHT22;3723;52.220;8.792;2023-10-31T07:28:49;9.50;1.00
7366;DHT22;3723;52.220;8.792;2023-10-31T07:31:17;9.60;1.00
7366;DHT22;3723;52.220;8.792;2023-10-31T07:33:44;9.60;1.00
7366;DHT22;3723;52.220;8.792;2023-10-31T07:36:11;9.60;1.00
7366;DHT22;3723;52.220;8.792;2023-10-31T07:38:38;9.60;1.00
7366;DHT22;3723;52.220;8.792;2023-10-31T07:41:05;9.60;1.00
7366;DHT22;3723;52.220;8.792;2023-10-31T07:43:32;9.60;1.00
7366;DHT22;3723;52.220;8.792;2023-10-31T07:45:59;9.60;1.00
7366;DHT22;3723;52.220;8.792;2023-10-31T07:48:27;9.50;99.90
7366;DHT22;3723;52.220;8.792;2023-10-31T07:50:54;9.40;99.90
7366;DHT22;3723;52.220;8.792;2023-10-31T07:53:21;9.40;99.90
7366;DHT22;3723;52.220;8.792;2023-10-31T07:55:49;9.30;99.90
7366;DHT22;3723;52.220;8.792;2023-10-31T07:58:16;9.30;1.00
7366;DHT22;3723;52.220;8.792;2023-10-31T08:00:43;9.50;1.00
7366;DHT22;3723;52.220;8.792;2023-10-31T08:03:11;9.80;1.00
7366;DHT22;3723;52.220;8.792;2023-10-31T08:05:39;10.20;1.00
7366;DHT22;3723;52.220;8.792;2023-10-31T08:08:06;10.40;1.00
7366;DHT22;3723;52.220;8.792;2023-10-31T08:10:33;10.70;99.90
7366;DHT22;3723;52.220;8.792;2023-10-31T08:13:00;10.80;44.70
7366;DHT22;3723;52.220;8.792;2023-10-31T08:15:27;10.90;1.00
7366;DHT22;3723;52.220;8.792;2023-10-31T08:17:54;11.10;1.00
7366;DHT22;3723;52.220;8.792;2023-10-31T08:20:21;11.50;1.00
7366;DHT22;3723;52.220;8.792;2023-10-31T08:22:50;11.90;1.00
7366;DHT22;3723;52.220;8.792;2023-10-31T08:25:17;12.00;1.00
7366;DHT22;3723;52.220;8.792;2023-10-31T08:27:43;11.90;1.00
7366;DHT22;3723;52.220;8.792;2023-10-31T08:30:11;11.90;1.00
7366;DHT22;3723;52.220;8.792;2023-10-31T08:32:38;11.90;1.00
7366;DHT22;3723;52.220;8.792;2023-10-31T08:35:05;12.10;1.00
7366;DHT22;3723;52.220;8.792;2023-10-31T08:37:32;12.30;1.00
7366;DHT22;3723;52.220;8.792;2023-10-31T08:40:00;12.60;1.00
7366;DHT22;3723;52.220;8.792;2023-10-31T08:42:30;12.90;1.00
7366;DHT22;3723;52.220;8.792;2023-10-31T08:44:57;13.00;1.00
7366;DHT22;3723;52.220;8.792;2023-10-31T08:47:23;13.00;1.00
7366;DHT22;3723;52.220;8.792;2023-10-31T08:49:50;12.70;1.00
7366;DHT22;3723;52.220;8.792;2023-10-31T08:52:17;12.50;1.00
7366;DHT22;3723;52.220;8.792;2023-10-31T08:54:44;12.20;1.00
7366;DHT22;3723;52.220;8.792;2023-10-31T08:57:12;12.00;1.00
7366;DHT22;3723;52.220;8.792;2023-10-31T08:59:39;11.80;1.00
7366;DHT22;3723;52.220;8.792;2023-10-31T09:02:07;11.60;1.00
7366;DHT22;3723;52.220;8.792;2023-10-31T09:04:34;11.60;1.00
7366;DHT22;3723;52.220;8.792;2023-10-31T09:07:01;11.50;1.00
7366;DHT22;3723;52.220;8.792;2023-10-31T09:09:28;11.60;1.00
7366;DHT22;3723;52.220;8.792;2023-10-31T09:11:55;11.70;1.00
7366;DHT22;3723;52.220;8.792;2023-10-31T09:14:23;11.80;1.00
7366;DHT22;3723;52.220;8.792;2023-10-31T09:16:50;11.90;1.00
7366;DHT22;3723;52.220;8.792;2023-10-31T09:19:17;11.90;1.00
7366;DHT22;3723;52.220;8.792;2023-10-31T09:21:45;11.90;1.00
7366;DHT22;3723;52.220;8.792;2023-10-31T09:24:12;12.10;1.00
7366;DHT22;3723;52.220;8.792;2023-10-31T09:26:41;12.10;1.00
7366;DHT22;3723;52.220;8.792;2023-10-31T09:29:09;12.10;1.00
7366;DHT22;3723;52.220;8.792;2023-10-31T09:31:38;12.10;1.00
7366;DHT22;3723;52.220;8.792;2023-10-31T09:34:05;12.10;1.00
7366;DHT22;3723;52.220;8.792;2023-10-31T09:36:33;12.00;1.00
7366;DHT22;3723;52.220;8.792;2023-10-31T09:39:00;12.00;1.00
7366;DHT22;3723;52.220;8.792;2023-10-31T09:41:28;11.90;1.00
7366;DHT22;3723;52.220;8.792;2023-10-31T09:43:56;12.00;1.00
7366;DHT22;3723;52.220;8.792;2023-10-31T09:46:22;11.90;1.00
7366;DHT22;3723;52.220;8.792;2023-10-31T09:48:51;11.90;1.00
7366;DHT22;3723;52.220;8.792;2023-10-31T09:51:18;11.90;1.00
7366;DHT22;3723;52.220;8.792;2023-10-31T09:53:45;11.90;1.00
7366;DHT22;3723;52.220;8.792;2023-10-31T09:56:14;12.00;1.00
7366;DHT22;3723;52.220;8.792;2023-10-31T09:58:42;12.00;1.00
7366;DHT22;3723;52.220;8.792;2023-10-31T10:01:09;12.10;1.00
7366;DHT22;3723;52.220;8.792;2023-10-31T10:03:37;12.10;1.00
7366;DHT22;3723;52.220;8.792;2023-10-31T10:06:06;12.20;99.90
7366;DHT22;3723;52.220;8.792;2023-10-31T10:08:37;12.20;99.90
7366;DHT22;3723;52.220;8.792;2023-10-31T10:11:05;12.30;99.90
7366;DHT22;3723;52.220;8.792;2023-10-31T10:16:00;12.40;99.90
7366;DHT22;3723;52.220;8.792;2023-10-31T10:18:28;12.50;99.90
7366;DHT22;3723;52.220;8.792;2023-10-31T10:20:56;12.60;99.90
7366;DHT22;3723;52.220;8.792;2023-10-31T10:23:26;12.70;99.90
7366;DHT22;3723;52.220;8.792;2023-10-31T10:25:53;12.70;99.90
7366;DHT22;3723;52.220;8.792;2023-10-31T10:28:21;12.80;99.90
7366;DHT22;3723;52.220;8.792;2023-10-31T10:30:48;12.70;99.90
7366;DHT22;3723;52.220;8.792;2023-10-31T10:33:15;12.60;99.90
7366;DHT22;3723;52.220;8.792;2023-10-31T10:35:44;12.40;99.90
7366;DHT22;3723;52.220;8.792;2023-10-31T10:38:14;12.10;99.90
7366;DHT22;3723;52.220;8.792;2023-10-31T10:40:45;12.00;99.90
7366;DHT22;3723;52.220;8.792;2023-10-31T10:43:15;11.80;99.90
7366;DHT22;3723;52.220;8.792;2023-10-31T10:45:46;11.80;99.90
7366;DHT22;3723;52.220;8.792;2023-10-31T10:48:15;11.80;99.90
7366;DHT22;3723;52.220;8.792;2023-10-31T10:50:44;11.80;99.90
7366;DHT22;3723;52.220;8.792;2023-10-31T10:53:19;11.80;1.00
7366;DHT22;3723;52.220;8.792;2023-10-31T10:55:52;11.80;99.90
7366;DHT22;3723;52.220;8.792;2023-10-31T10:58:25;11.80;99.90
7366;DHT22;3723;52.220;8.792;2023-10-31T11:00:55;11.90;99.90
7366;DHT22;3723;52.220;8.792;2023-10-31T11:03:24;12.10;1.00
7366;DHT22;3723;52.220;8.792;2023-10-31T11:05:53;12.90;1.00
7366;DHT22;3723;52.220;8.792;2023-10-31T11:08:23;14.00;99.90
7366;DHT22;3723;52.220;8.792;2023-10-31T11:10:53;15.00;99.90
7366;DHT22;3723;52.220;8.792;2023-10-31T11:13:22;15.50;99.90
7366;DHT22;3723;52.220;8.792;2023-10-31T11:15:53;15.50;99.90
7366;DHT22;3723;52.220;8.792;2023-10-31T11:18:22;15.10;99.90
7366;DHT22;3723;52.220;8.792;2023-10-31T11:20:50;14.60;99.90
7366;DHT22;3723;52.220;8.792;2023-10-31T11:23:17;14.00;99.90
7366;DHT22;3723;52.220;8.792;2023-10-31T11:25:44;13.60;99.90
7366;DHT22;3723;52.220;8.792;2023-10-31T11:28:13;13.20;99.90
7366;DHT22;3723;52.220;8.792;2023-10-31T11:30:41;12.90;99.90
7366;DHT22;3723;52.220;8.792;2023-10-31T11:33:12;12.70;99.90
7366;DHT22;3723;52.220;8.792;2023-10-31T11:35:40;12.50;99.90
7366;DHT22;3723;52.220;8.792;2023-10-31T11:38:09;12.40;99.90
7366;DHT22;3723;52.220;8.792;2023-10-31T11:40:57;12.40;99.90
7366;DHT22;3723;52.220;8.792;2023-10-31T11:43:36;12.30;99.90
7366;DHT22;3723;52.220;8.792;2023-10-31T11:46:03;12.30;99.90
7366;DHT22;3723;52.220;8.792;2023-10-31T11:48:46;12.40;99.90
7366;DHT22;3723;52.220;8.792;2023-10-31T11:51:13;12.40;99.90
7366;DHT22;3723;52.220;8.792;2023-10-31T11:53:40;12.50;99.90
7366;DHT22;3723;52.220;8.792;2023-10-31T11:56:10;12.70;99.90
7366;DHT22;3723;52.220;8.792;2023-10-31T11:58:38;12.90;99.90
7366;DHT22;3723;52.220;8.792;2023-10-31T12:01:07;13.60;99.90
7366;DHT22;3723;52.220;8.792;2023-10-31T12:03:40;14.20;99.90
7366;DHT22;3723;52.220;8.792;2023-10-31T12:06:08;14.50;99.90
7366;DHT22;3723;52.220;8.792;2023-10-31T12:08:36;14.20;99.90
7366;DHT22;3723;52.220;8.792;2023-10-31T12:11:06;14.00;99.90
7366;DHT22;3723;52.220;8.792;2023-10-31T12:13:33;14.00;99.90
7366;DHT22;3723;52.220;8.792;2023-10-31T12:16:03;14.40;99.90
7366;DHT22;3723;52.220;8.792;2023-10-31T12:18:30;14.80;99.90
7366;DHT22;3723;52.220;8.792;2023-10-31T12:20:57;14.90;99.90
7366;DHT22;3723;52.220;8.792;2023-10-31T12:23:23;15.00;99.90
7366;DHT22;3723;52.220;8.792;2023-10-31T12:26:20;15.00;99.90
7366;DHT22;3723;52.220;8.792;2023-10-31T12:28:47;14.50;99.90
7366;DHT22;3723;52.220;8.792;2023-10-31T12:31:17;13.90;99.90
7366;DHT22;3723;52.220;8.792;2023-10-31T12:33:47;13.60;99.90
7366;DHT22;3723;52.220;8.792;2023-10-31T12:36:16;13.20;99.90
7366;DHT22;3723;52.220;8.792;2023-10-31T12:38:47;13.00;99.90
7366;DHT22;3723;52.220;8.792;2023-10-31T12:41:14;12.80;99.90
7366;DHT22;3723;52.220;8.792;2023-10-31T12:43:41;12.60;99.90
7366;DHT22;3723;52.220;8.792;2023-10-31T12:46:29;12.70;99.90
7366;DHT22;3723;52.220;8.792;2023-10-31T12:48:58;12.90;99.90
7366;DHT22;3723;52.220;8.792;2023-10-31T12:51:25;13.60;99.90
7366;DHT22;3723;52.220;8.792;2023-10-31T12:53:54;14.60;99.90
7366;DHT22;3723;52.220;8.792;2023-10-31T12:56:38;15.50;99.90
7366;DHT22;3723;52.220;8.792;2023-10-31T12:59:05;16.30;99.90
7366;DHT22;3723;52.220;8.792;2023-10-31T13:01:35;16.70;99.90
7366;DHT22;3723;52.220;8.792;2023-10-31T13:04:04;17.10;99.90
7366;DHT22;3723;52.220;8.792;2023-10-31T13:06:31;17.20;99.90
7366;DHT22;3723;52.220;8.792;2023-10-31T13:08:58;17.40;99.90
7366;DHT22;3723;52.220;8.792;2023-10-31T13:11:29;17.30;99.90
7366;DHT22;3723;52.220;8.792;2023-10-31T13:13:56;17.40;99.90
7366;DHT22;3723;52.220;8.792;2023-10-31T13:16:24;17.60;99.90
7366;DHT22;3723;52.220;8.792;2023-10-31T13:18:53;18.00;99.90
7366;DHT22;3723;52.220;8.792;2023-10-31T13:21:20;18.10;99.90
7366;DHT22;3723;52.220;8.792;2023-10-31T13:23:47;17.60;99.90
7366;DHT22;3723;52.220;8.792;2023-10-31T13:26:14;16.90;99.90
7366;DHT22;3723;52.220;8.792;2023-10-31T13:28:42;16.20;99.90
7366;DHT22;3723;52.220;8.792;2023-10-31T13:31:09;15.60;99.90
7366;DHT22;3723;52.220;8.792;2023-10-31T13:33:36;15.10;99.90
7366;DHT22;3723;52.220;8.792;2023-10-31T13:36:06;14.90;99.90
7366;DHT22;3723;52.220;8.792;2023-10-31T13:38:33;14.90;99.90
7366;DHT22;3723;52.220;8.792;2023-10-31T13:41:01;14.70;99.90
7366;DHT22;3723;52.220;8.792;2023-10-31T13:43:28;14.50;99.90
7366;DHT22;3723;52.220;8.792;2023-10-31T13:45:55;14.40;99.90
7366;DHT22;3723;52.220;8.792;2023-10-31T13:48:22;14.30;99.90
7366;DHT22;3723;52.220;8.792;2023-10-31T13:50:49;14.30;99.90
7366;DHT22;3723;52.220;8.792;2023-10-31T13:53:18;14.70;99.90
7366;DHT22;3723;52.220;8.792;2023-10-31T13:55:46;14.80;99.90
7366;DHT22;3723;52.220;8.792;2023-10-31T13:58:12;15.00;99.90
7366;DHT22;3723;52.220;8.792;2023-10-31T14:00:39;15.20;99.90
7366;DHT22;3723;52.220;8.792;2023-10-31T14:03:06;15.30;99.90
7366;DHT22;3723;52.220;8.792;2023-10-31T14:05:33;15.10;99.90
7366;DHT22;3723;52.220;8.792;2023-10-31T14:08:00;14.90;99.90
7366;DHT22;3723;52.220;8.792;2023-10-31T14:10:29;14.80;99.90
7366;DHT22;3723;52.220;8.792;2023-10-31T14:12:56;14.80;99.90
7366;DHT22;3723;52.220;8.792;2023-10-31T14:15:23;15.00;99.90
7366;DHT22;3723;52.220;8.792;2023-10-31T14:17:50;14.90;99.90
7366;DHT22;3723;52.220;8.792;2023-10-31T14:20:18;14.70;99.90
7366;DHT22;3723;52.220;8.792;2023-10-31T14:22:48;14.60;99.90
7366;DHT22;3723;52.220;8.792;2023-10-31T14:25:15;14.40;99.90
7366;DHT22;3723;52.220;8.792;2023-10-31T14:27:43;14.30;99.90
7366;DHT22;3723;52.220;8.792;2023-10-31T14:30:11;14.30;99.90
7366;DHT22;3723;52.220;8.792;2023-10-31T14:32:39;14.30;99.90
7366;DHT22;3723;52.220;8.792;2023-10-31T14:35:06;14.30;99.90
7366;DHT22;3723;52.220;8.792;2023-10-31T14:37:33;14.60;99.90
7366;DHT22;3723;52.220;8.792;2023-10-31T14:40:01;14.70;99.90
7366;DHT22;3723;52.220;8.792;2023-10-31T14:42:29;14.50;99.90
7366;DHT22;3723;52.220;8.792;2023-10-31T14:44:57;14.30;99.90
7366;DHT22;3723;52.220;8.792;2023-10-31T14:47:25;14.10;99.90
7366;DHT22;3723;52.220;8.792;2023-10-31T14:49:52;13.80;99.90
7366;DHT22;3723;52.220;8.792;2023-10-31T14:52:19;13.60;99.90
7366;DHT22;3723;52.220;8.792;2023-10-31T14:54:47;13.30;99.90
7366;DHT22;3723;52.220;8.792;2023-10-31T14:57:14;13.10;99.90
7366;DHT22;3723;52.220;8.792;2023-10-31T15:02:09;12.60;99.90
7366;DHT22;3723;52.220;8.792;2023-10-31T15:04:36;12.40;99.90
7366;DHT22;3723;52.220;8.792;2023-10-31T15:07:04;12.20;99.90
7366;DHT22;3723;52.220;8.792;2023-10-31T15:09:31;12.10;99.90
7366;DHT22;3723;52.220;8.792;2023-10-31T15:11:58;11.90;99.90
7366;DHT22;3723;52.220;8.792;2023-10-31T15:14:25;11.80;99.90
7366;DHT22;3723;52.220;8.792;2023-10-31T15:16:51;11.60;99.90
7366;DHT22;3723;52.220;8.792;2023-10-31T15:19:21;11.40;99.90
7366;DHT22;3723;52.220;8.792;2023-10-31T15:21:47;11.30;99.90
7366;DHT22;3723;52.220;8.792;2023-10-31T15:24:14;11.10;99.90
7366;DHT22;3723;52.220;8.792;2023-10-31T15:26:41;11.00;99.90
7366;DHT22;3723;52.220;8.792;2023-10-31T15:29:08;10.90;99.90
7366;DHT22;3723;52.220;8.792;2023-10-31T15:31:35;10.80;99.90
7366;DHT22;3723;52.220;8.792;2023-10-31T15:34:03;10.80;99.90
7366;DHT22;3723;52.220;8.792;2023-10-31T15:36:31;10.70;99.90
7366;DHT22;3723;52.220;8.792;2023-10-31T15:38:58;10.70;1.00
7366;DHT22;3723;52.220;8.792;2023-10-31T15:41:25;10.60;1.00
7366;DHT22;3723;52.220;8.792;2023-10-31T15:43:52;10.60;1.00
7366;DHT22;3723;52.220;8.792;2023-10-31T15:46:20;10.60;1.00
7366;DHT22;3723;52.220;8.792;2023-10-31T15:48:47;10.60;1.00
7366;DHT22;3723;52.220;8.792;2023-10-31T15:51:14;10.60;1.00
7366;DHT22;3723;52.220;8.792;2023-10-31T15:53:42;10.60;1.00
7366;DHT22;3723;52.220;8.792;2023-10-31T15:56:09;10.70;1.00
7366;DHT22;3723;52.220;8.792;2023-10-31T15:58:36;10.70;1.00
7366;DHT22;3723;52.220;8.792;2023-10-31T16:01:04;10.70;1.00
7366;DHT22;3723;52.220;8.792;2023-10-31T16:03:31;10.70;1.00
7366;DHT22;3723;52.220;8.792;2023-10-31T16:05:58;10.70;1.00
7366;DHT22;3723;52.220;8.792;2023-10-31T16:08:25;10.60;1.00
7366;DHT22;3723;52.220;8.792;2023-10-31T16:10:53;10.60;1.00
7366;DHT22;3723;52.220;8.792;2023-10-31T16:13:20;10.50;1.00
7366;DHT22;3723;52.220;8.792;2023-10-31T16:15:47;10.60;1.00
7366;DHT22;3723;52.220;8.792;2023-10-31T16:18:14;10.60;1.00
7366;DHT22;3723;52.220;8.792;2023-10-31T16:20:41;10.60;1.00